Kapaa, HI (96746)

7:50 PM HST on February 19, 2017 (GMT -1000)
Kalihiwai Ridge - Top of Halaulani Road | | Change Station
Active Advisory: Small Craft Advisory

Elev 561 ft 22.17 °N, 159.44 °W | Updated 16 seconds ago

Overcast
Overcast
67.3 °F
Feels Like 67.3 °F
N
0.0
Wind Variable Wind from WSW
Gusts 0.0 mph

Today
High -- | Low -- °F
--% Chance of Precip.
Yesterday
High -- | Low -- °F
Precip. -- in
Pressure 30.21 in
Visibility 10.0 miles
Clouds Scattered Clouds 2900 ft
Mostly Cloudy 3900 ft
Overcast 4500 ft
Dew Point 58 °F
Humidity 71%
Rainfall 0.00 in
Snow Depth Not available.
7:05 AM 6:37 PM
Last Quarter, 37% visible
METAR PHLI 200453Z 03021G27KT 10SM SCT029 BKN039 OVC045 21/14 A3022 RMK AO2 PK WND 03027/0452 SLP230 T02060139
Pressure 30.21 in
Visibility 10.0 miles
Clouds Scattered Clouds 2900 ft
Mostly Cloudy 3900 ft
Overcast 4500 ft
Dew Point 58 °F
Humidity 71%
Rainfall 0.00 in
Snow Depth Not available.
7:05 AM 6:37 PM
Last Quarter, 37% visible
METAR PHLI 200453Z 03021G27KT 10SM SCT029 BKN039 OVC045 21/14 A3022 RMK AO2 PK WND 03027/0452 SLP230 T02060139

Get Your Daily Forecast Email!

Thanks for signing up!

Be on the lookout for a verification email in your inbox.

You'll start receiving the daily forecast at 8 AM.

×

10-Day Weather Forecast

Almanac

Astronomy

Feb. 19, 2017 Rise Set
Actual Time
Civil Twilight
Nautical Twilight
Astronomical Twilight
Moon
Length of Visible Light
Length of Day
Tomorrow will be .
, % of the Moon is Illuminated

Today's Extremes

State Highs State Lows

Community

WunderPhotos

Upload Photos

1,962,540 photos uploaded!

WunderBlog® & News

Nearby

Air Quality

  Air Quality AQ Index Pollutant
Not available.

Snow Depth

Station Depth Elevation

Earthquake Activity

City Distance Mag. Time & Date
Minimum magnitude displayed is 2.5.

Coastal Water Temperatures

Place Temperature

Stations

Nearby Weather Stations

Station Location Temp. Windchill Dew Point Humidity Wind Precip. Elev Updated Type
                   

Watches & Warnings

Small Craft Advisory
Issued: 3:49 PM HST Feb. 19, 2017 – National Weather Service

... Small Craft Advisory remains in effect until 6 PM HST Monday...

* winds and seas... north to northeast winds 20 to 30 kt
tonight... becoming east Monday. Seas 8 to 12 ft.

Precautionary/preparedness actions...

A Small Craft Advisory means that winds speeds of 25 to 33 knots
and/or seas 10 feet or greater are expected to produce conditions
hazardous to small craft. Inexperienced mariners... especially
those operating smaller vessels... should avoid navigating in
these conditions.